sensor_id;sensor_type;location;lat;lon;timestamp;P1;durP1;ratioP1;P2;durP2;ratioP2
757;SDS011;363;48.764;9.172;2023-05-16T00:01:49;8.27;;;7.57;;
757;SDS011;363;48.764;9.172;2023-05-16T00:04:15;8.50;;;7.70;;
757;SDS011;363;48.764;9.172;2023-05-16T00:06:41;8.48;;;7.78;;
757;SDS011;363;48.764;9.172;2023-05-16T00:09:07;8.63;;;7.80;;
757;SDS011;363;48.764;9.172;2023-05-16T00:11:33;8.30;;;7.37;;
757;SDS011;363;48.764;9.172;2023-05-16T00:13:58;10.50;;;8.50;;
757;SDS011;363;48.764;9.172;2023-05-16T00:16:25;9.80;;;8.25;;
757;SDS011;363;48.764;9.172;2023-05-16T00:18:53;9.25;;;8.40;;
757;SDS011;363;48.764;9.172;2023-05-16T00:21:18;9.30;;;8.43;;
757;SDS011;363;48.764;9.172;2023-05-16T00:23:44;9.30;;;8.00;;
757;SDS011;363;48.764;9.172;2023-05-16T00:26:10;8.33;;;7.20;;
757;SDS011;363;48.764;9.172;2023-05-16T00:28:36;9.07;;;8.27;;
757;SDS011;363;48.764;9.172;2023-05-16T00:31:01;9.37;;;8.57;;
757;SDS011;363;48.764;9.172;2023-05-16T00:33:27;9.07;;;8.17;;
757;SDS011;363;48.764;9.172;2023-05-16T00:35:52;11.23;;;9.97;;
757;SDS011;363;48.764;9.172;2023-05-16T00:38:18;10.00;;;9.00;;
757;SDS011;363;48.764;9.172;2023-05-16T00:40:44;9.80;;;8.90;;
757;SDS011;363;48.764;9.172;2023-05-16T00:43:10;12.45;;;11.35;;
757;SDS011;363;48.764;9.172;2023-05-16T00:45:36;12.20;;;11.10;;
757;SDS011;363;48.764;9.172;2023-05-16T00:48:01;13.63;;;12.33;;
757;SDS011;363;48.764;9.172;2023-05-16T00:50:27;16.05;;;14.45;;
757;SDS011;363;48.764;9.172;2023-05-16T00:52:53;14.10;;;12.70;;
757;SDS011;363;48.764;9.172;2023-05-16T00:55:19;14.73;;;13.03;;
757;SDS011;363;48.764;9.172;2023-05-16T00:57:45;17.23;;;15.43;;
757;SDS011;363;48.764;9.172;2023-05-16T01:00:11;16.10;;;14.50;;
757;SDS011;363;48.764;9.172;2023-05-16T01:02:39;16.90;;;15.20;;
757;SDS011;363;48.764;9.172;2023-05-16T01:05:05;16.57;;;14.93;;
757;SDS011;363;48.764;9.172;2023-05-16T01:07:32;18.63;;;16.63;;
757;SDS011;363;48.764;9.172;2023-05-16T01:09:59;15.90;;;14.40;;
757;SDS011;363;48.764;9.172;2023-05-16T01:20:58;18.35;;;16.55;;
757;SDS011;363;48.764;9.172;2023-05-16T01:23:48;17.75;;;15.93;;
757;SDS011;363;48.764;9.172;2023-05-16T01:26:24;20.13;;;17.52;;
757;SDS011;363;48.764;9.172;2023-05-16T01:28:52;20.00;;;17.88;;
757;SDS011;363;48.764;9.172;2023-05-16T01:31:19;22.63;;;18.77;;
757;SDS011;363;48.764;9.172;2023-05-16T01:33:45;20.52;;;18.33;;
757;SDS011;363;48.764;9.172;2023-05-16T01:36:32;19.10;;;17.00;;
757;SDS011;363;48.764;9.172;2023-05-16T01:39:19;20.73;;;18.33;;
757;SDS011;363;48.764;9.172;2023-05-16T01:44:40;22.30;;;20.00;;
757;SDS011;363;48.764;9.172;2023-05-16T01:47:11;24.05;;;21.40;;
757;SDS011;363;48.764;9.172;2023-05-16T01:52:24;23.92;;;20.00;;
757;SDS011;363;48.764;9.172;2023-05-16T01:55:14;25.75;;;22.88;;
757;SDS011;363;48.764;9.172;2023-05-16T01:57:45;23.27;;;20.75;;
757;SDS011;363;48.764;9.172;2023-05-16T02:00:12;25.05;;;22.23;;
757;SDS011;363;48.764;9.172;2023-05-16T02:02:38;25.92;;;20.98;;
757;SDS011;363;48.764;9.172;2023-05-16T02:05:04;23.83;;;20.67;;
757;SDS011;363;48.764;9.172;2023-05-16T02:07:30;24.38;;;21.10;;
757;SDS011;363;48.764;9.172;2023-05-16T02:09:56;25.77;;;22.97;;
757;SDS011;363;48.764;9.172;2023-05-16T02:12:21;24.83;;;20.80;;
757;SDS011;363;48.764;9.172;2023-05-16T02:14:48;30.40;;;21.58;;
757;SDS011;363;48.764;9.172;2023-05-16T02:17:14;27.10;;;22.17;;
757;SDS011;363;48.764;9.172;2023-05-16T02:19:40;27.27;;;21.80;;
757;SDS011;363;48.764;9.172;2023-05-16T02:22:05;25.10;;;21.13;;
757;SDS011;363;48.764;9.172;2023-05-16T02:24:31;26.60;;;22.20;;
757;SDS011;363;48.764;9.172;2023-05-16T02:26:56;27.73;;;22.70;;
757;SDS011;363;48.764;9.172;2023-05-16T02:29:22;25.30;;;21.63;;
757;SDS011;363;48.764;9.172;2023-05-16T02:31:48;23.87;;;20.73;;
757;SDS011;363;48.764;9.172;2023-05-16T02:34:13;24.87;;;21.37;;
757;SDS011;363;48.764;9.172;2023-05-16T02:36:39;26.75;;;23.05;;
757;SDS011;363;48.764;9.172;2023-05-16T02:39:05;27.80;;;22.97;;
757;SDS011;363;48.764;9.172;2023-05-16T02:41:32;27.27;;;22.60;;
757;SDS011;363;48.764;9.172;2023-05-16T02:43:58;32.57;;;24.47;;
757;SDS011;363;48.764;9.172;2023-05-16T02:46:31;27.17;;;22.23;;
757;SDS011;363;48.764;9.172;2023-05-16T02:48:59;28.98;;;23.98;;
757;SDS011;363;48.764;9.172;2023-05-16T02:51:26;30.45;;;23.83;;
757;SDS011;363;48.764;9.172;2023-05-16T02:53:52;31.60;;;24.52;;
757;SDS011;363;48.764;9.172;2023-05-16T02:56:20;29.80;;;23.85;;
757;SDS011;363;48.764;9.172;2023-05-16T02:58:47;28.37;;;23.70;;
757;SDS011;363;48.764;9.172;2023-05-16T03:01:14;30.48;;;24.35;;
757;SDS011;363;48.764;9.172;2023-05-16T03:03:40;27.95;;;21.80;;
757;SDS011;363;48.764;9.172;2023-05-16T03:06:06;31.97;;;23.80;;
757;SDS011;363;48.764;9.172;2023-05-16T03:08:32;30.60;;;23.67;;
757;SDS011;363;48.764;9.172;2023-05-16T03:10:59;29.58;;;23.15;;
757;SDS011;363;48.764;9.172;2023-05-16T03:13:24;33.20;;;25.57;;
757;SDS011;363;48.764;9.172;2023-05-16T03:15:50;31.80;;;24.37;;
757;SDS011;363;48.764;9.172;2023-05-16T03:18:16;32.90;;;23.70;;
757;SDS011;363;48.764;9.172;2023-05-16T03:20:41;30.63;;;23.10;;
757;SDS011;363;48.764;9.172;2023-05-16T03:23:07;29.87;;;25.10;;
757;SDS011;363;48.764;9.172;2023-05-16T03:25:33;34.07;;;24.60;;
757;SDS011;363;48.764;9.172;2023-05-16T03:28:00;31.00;;;24.95;;
757;SDS011;363;48.764;9.172;2023-05-16T03:30:26;30.55;;;25.40;;
757;SDS011;363;48.764;9.172;2023-05-16T03:32:52;30.37;;;23.80;;
757;SDS011;363;48.764;9.172;2023-05-16T03:35:17;33.50;;;25.77;;
757;SDS011;363;48.764;9.172;2023-05-16T03:37:43;31.50;;;25.27;;
757;SDS011;363;48.764;9.172;2023-05-16T03:40:09;31.90;;;26.53;;
757;SDS011;363;48.764;9.172;2023-05-16T03:42:35;33.70;;;25.75;;
757;SDS011;363;48.764;9.172;2023-05-16T03:45:00;36.63;;;25.57;;
757;SDS011;363;48.764;9.172;2023-05-16T03:47:27;40.83;;;29.60;;
757;SDS011;363;48.764;9.172;2023-05-16T03:49:55;34.40;;;27.27;;
757;SDS011;363;48.764;9.172;2023-05-16T03:52:20;36.20;;;28.03;;
757;SDS011;363;48.764;9.172;2023-05-16T03:54:46;38.43;;;26.70;;
757;SDS011;363;48.764;9.172;2023-05-16T03:57:12;34.47;;;27.10;;
757;SDS011;363;48.764;9.172;2023-05-16T03:59:37;37.80;;;27.43;;
757;SDS011;363;48.764;9.172;2023-05-16T04:02:03;37.07;;;27.60;;
757;SDS011;363;48.764;9.172;2023-05-16T04:04:29;36.47;;;27.42;;
757;SDS011;363;48.764;9.172;2023-05-16T04:06:55;38.20;;;28.60;;
757;SDS011;363;48.764;9.172;2023-05-16T04:09:21;40.27;;;29.13;;
757;SDS011;363;48.764;9.172;2023-05-16T04:11:46;35.40;;;25.63;;
757;SDS011;363;48.764;9.172;2023-05-16T04:14:12;38.10;;;27.47;;
757;SDS011;363;48.764;9.172;2023-05-16T04:16:39;35.67;;;28.23;;
757;SDS011;363;48.764;9.172;2023-05-16T04:19:05;39.03;;;29.35;;
757;SDS011;363;48.764;9.172;2023-05-16T04:21:31;34.67;;;27.20;;
757;SDS011;363;48.764;9.172;2023-05-16T04:23:57;38.67;;;28.50;;
757;SDS011;363;48.764;9.172;2023-05-16T04:26:23;38.63;;;29.07;;
757;SDS011;363;48.764;9.172;2023-05-16T04:28:49;39.33;;;27.80;;
757;SDS011;363;48.764;9.172;2023-05-16T04:31:14;37.97;;;26.87;;
757;SDS011;363;48.764;9.172;2023-05-16T04:33:40;36.57;;;27.97;;
757;SDS011;363;48.764;9.172;2023-05-16T04:36:06;35.97;;;27.93;;
757;SDS011;363;48.764;9.172;2023-05-16T04:38:32;39.93;;;29.93;;
757;SDS011;363;48.764;9.172;2023-05-16T04:40:58;41.55;;;29.45;;
757;SDS011;363;48.764;9.172;2023-05-16T04:43:23;38.63;;;28.33;;
757;SDS011;363;48.764;9.172;2023-05-16T04:45:50;41.10;;;28.65;;
757;SDS011;363;48.764;9.172;2023-05-16T04:48:17;36.50;;;27.10;;
757;SDS011;363;48.764;9.172;2023-05-16T04:50:43;39.90;;;29.53;;
757;SDS011;363;48.764;9.172;2023-05-16T04:53:09;37.20;;;27.50;;
757;SDS011;363;48.764;9.172;2023-05-16T04:55:35;37.73;;;28.70;;
757;SDS011;363;48.764;9.172;2023-05-16T04:58:01;39.60;;;29.00;;
757;SDS011;363;48.764;9.172;2023-05-16T05:00:26;38.33;;;27.80;;
757;SDS011;363;48.764;9.172;2023-05-16T05:02:52;38.30;;;28.27;;
757;SDS011;363;48.764;9.172;2023-05-16T05:05:18;37.30;;;28.93;;
757;SDS011;363;48.764;9.172;2023-05-16T05:07:44;38.20;;;27.90;;
757;SDS011;363;48.764;9.172;2023-05-16T05:10:09;37.47;;;27.90;;
757;SDS011;363;48.764;9.172;2023-05-16T05:12:35;40.00;;;28.23;;
757;SDS011;363;48.764;9.172;2023-05-16T05:15:01;36.30;;;28.00;;
757;SDS011;363;48.764;9.172;2023-05-16T05:17:27;38.88;;;28.15;;
757;SDS011;363;48.764;9.172;2023-05-16T05:19:53;38.65;;;28.23;;
757;SDS011;363;48.764;9.172;2023-05-16T05:22:19;35.17;;;26.13;;
757;SDS011;363;48.764;9.172;2023-05-16T05:24:45;35.93;;;27.00;;
757;SDS011;363;48.764;9.172;2023-05-16T05:27:11;32.00;;;26.03;;
757;SDS011;363;48.764;9.172;2023-05-16T05:29:36;32.67;;;24.67;;
757;SDS011;363;48.764;9.172;2023-05-16T05:32:02;36.63;;;25.93;;
757;SDS011;363;48.764;9.172;2023-05-16T05:34:28;31.77;;;25.55;;
757;SDS011;363;48.764;9.172;2023-05-16T05:36:54;35.03;;;26.52;;
757;SDS011;363;48.764;9.172;2023-05-16T05:39:20;32.77;;;22.83;;
757;SDS011;363;48.764;9.172;2023-05-16T05:41:46;35.87;;;25.70;;
757;SDS011;363;48.764;9.172;2023-05-16T05:44:12;34.50;;;27.03;;
757;SDS011;363;48.764;9.172;2023-05-16T05:46:37;29.37;;;23.90;;
757;SDS011;363;48.764;9.172;2023-05-16T05:49:03;33.23;;;27.10;;
757;SDS011;363;48.764;9.172;2023-05-16T05:51:29;32.95;;;25.70;;
757;SDS011;363;48.764;9.172;2023-05-16T05:53:55;35.70;;;26.70;;
757;SDS011;363;48.764;9.172;2023-05-16T05:56:21;36.07;;;26.10;;
757;SDS011;363;48.764;9.172;2023-05-16T05:58:48;29.65;;;23.80;;
757;SDS011;363;48.764;9.172;2023-05-16T06:01:14;36.90;;;27.30;;
757;SDS011;363;48.764;9.172;2023-05-16T06:03:40;35.40;;;27.07;;
757;SDS011;363;48.764;9.172;2023-05-16T06:06:07;31.92;;;24.55;;
757;SDS011;363;48.764;9.172;2023-05-16T06:08:33;31.00;;;23.40;;
757;SDS011;363;48.764;9.172;2023-05-16T06:10:59;35.53;;;26.40;;
757;SDS011;363;48.764;9.172;2023-05-16T06:13:25;28.08;;;22.05;;
757;SDS011;363;48.764;9.172;2023-05-16T06:15:51;25.80;;;20.80;;
757;SDS011;363;48.764;9.172;2023-05-16T06:18:18;29.65;;;21.90;;
757;SDS011;363;48.764;9.172;2023-05-16T06:20:44;30.88;;;25.60;;
757;SDS011;363;48.764;9.172;2023-05-16T06:23:10;29.93;;;24.40;;
757;SDS011;363;48.764;9.172;2023-05-16T06:25:36;26.15;;;23.15;;
757;SDS011;363;48.764;9.172;2023-05-16T06:28:02;33.80;;;25.30;;
757;SDS011;363;48.764;9.172;2023-05-16T06:30:27;28.83;;;23.67;;
757;SDS011;363;48.764;9.172;2023-05-16T06:32:53;31.53;;;24.43;;
757;SDS011;363;48.764;9.172;2023-05-16T06:35:19;31.97;;;24.37;;
757;SDS011;363;48.764;9.172;2023-05-16T06:37:44;31.80;;;24.20;;
757;SDS011;363;48.764;9.172;2023-05-16T06:40:10;31.43;;;24.83;;
757;SDS011;363;48.764;9.172;2023-05-16T06:42:36;28.17;;;23.95;;
757;SDS011;363;48.764;9.172;2023-05-16T06:45:02;30.10;;;22.87;;
757;SDS011;363;48.764;9.172;2023-05-16T06:47:27;27.57;;;22.80;;
757;SDS011;363;48.764;9.172;2023-05-16T06:49:53;29.37;;;23.40;;
757;SDS011;363;48.764;9.172;2023-05-16T06:52:19;28.30;;;24.20;;
757;SDS011;363;48.764;9.172;2023-05-16T06:54:45;27.60;;;22.33;;
757;SDS011;363;48.764;9.172;2023-05-16T06:57:11;29.63;;;23.50;;
757;SDS011;363;48.764;9.172;2023-05-16T06:59:37;28.48;;;21.15;;
757;SDS011;363;48.764;9.172;2023-05-16T07:02:03;28.30;;;21.73;;
757;SDS011;363;48.764;9.172;2023-05-16T07:04:29;27.45;;;22.33;;
757;SDS011;363;48.764;9.172;2023-05-16T07:06:55;26.60;;;22.17;;
757;SDS011;363;48.764;9.172;2023-05-16T07:09:20;26.40;;;21.67;;
757;SDS011;363;48.764;9.172;2023-05-16T07:11:46;27.47;;;20.83;;
757;SDS011;363;48.764;9.172;2023-05-16T07:14:11;26.70;;;21.30;;
757;SDS011;363;48.764;9.172;2023-05-16T07:16:37;26.50;;;21.20;;
757;SDS011;363;48.764;9.172;2023-05-16T07:19:02;23.03;;;18.80;;
757;SDS011;363;48.764;9.172;2023-05-16T07:21:28;25.40;;;20.30;;
757;SDS011;363;48.764;9.172;2023-05-16T07:23:54;24.00;;;19.33;;
757;SDS011;363;48.764;9.172;2023-05-16T07:26:19;19.60;;;16.50;;
757;SDS011;363;48.764;9.172;2023-05-16T07:28:48;21.10;;;18.25;;
757;SDS011;363;48.764;9.172;2023-05-16T07:31:14;19.42;;;17.00;;
757;SDS011;363;48.764;9.172;2023-05-16T07:33:41;16.60;;;13.73;;
757;SDS011;363;48.764;9.172;2023-05-16T07:36:06;16.03;;;12.60;;
757;SDS011;363;48.764;9.172;2023-05-16T07:38:32;15.32;;;13.73;;
757;SDS011;363;48.764;9.172;2023-05-16T07:40:59;15.60;;;13.10;;
757;SDS011;363;48.764;9.172;2023-05-16T07:43:25;17.92;;;15.68;;
757;SDS011;363;48.764;9.172;2023-05-16T07:45:50;14.57;;;11.80;;
757;SDS011;363;48.764;9.172;2023-05-16T07:48:16;12.57;;;11.15;;
757;SDS011;363;48.764;9.172;2023-05-16T07:50:42;12.53;;;11.27;;
757;SDS011;363;48.764;9.172;2023-05-16T07:53:08;11.50;;;9.97;;
757;SDS011;363;48.764;9.172;2023-05-16T07:55:34;10.33;;;9.27;;
757;SDS011;363;48.764;9.172;2023-05-16T07:57:59;11.17;;;10.17;;
757;SDS011;363;48.764;9.172;2023-05-16T08:00:25;10.47;;;9.37;;
757;SDS011;363;48.764;9.172;2023-05-16T08:02:50;10.70;;;9.80;;
757;SDS011;363;48.764;9.172;2023-05-16T08:05:16;11.10;;;9.97;;
757;SDS011;363;48.764;9.172;2023-05-16T08:07:42;11.20;;;10.10;;
757;SDS011;363;48.764;9.172;2023-05-16T08:10:07;10.77;;;9.80;;
757;SDS011;363;48.764;9.172;2023-05-16T08:12:33;11.30;;;9.53;;
757;SDS011;363;48.764;9.172;2023-05-16T08:14:59;10.77;;;9.63;;
757;SDS011;363;48.764;9.172;2023-05-16T08:17:25;11.67;;;10.47;;
757;SDS011;363;48.764;9.172;2023-05-16T08:19:50;10.77;;;9.77;;
757;SDS011;363;48.764;9.172;2023-05-16T08:22:16;12.57;;;11.37;;
757;SDS011;363;48.764;9.172;2023-05-16T08:24:41;12.23;;;11.13;;
757;SDS011;363;48.764;9.172;2023-05-16T08:27:07;12.57;;;11.40;;
757;SDS011;363;48.764;9.172;2023-05-16T08:29:33;14.20;;;12.47;;
757;SDS011;363;48.764;9.172;2023-05-16T08:31:58;12.50;;;10.70;;
757;SDS011;363;48.764;9.172;2023-05-16T08:34:24;12.07;;;10.87;;
757;SDS011;363;48.764;9.172;2023-05-16T08:36:49;12.77;;;11.43;;
757;SDS011;363;48.764;9.172;2023-05-16T08:39:15;14.13;;;11.63;;
757;SDS011;363;48.764;9.172;2023-05-16T08:41:40;14.03;;;12.60;;
757;SDS011;363;48.764;9.172;2023-05-16T08:44:06;14.37;;;12.87;;
757;SDS011;363;48.764;9.172;2023-05-16T08:46:34;14.07;;;12.57;;
757;SDS011;363;48.764;9.172;2023-05-16T08:49:00;13.35;;;12.02;;
757;SDS011;363;48.764;9.172;2023-05-16T08:51:31;13.73;;;12.32;;
757;SDS011;363;48.764;9.172;2023-05-16T08:54:05;13.30;;;11.90;;
757;SDS011;363;48.764;9.172;2023-05-16T08:56:32;15.93;;;14.20;;
757;SDS011;363;48.764;9.172;2023-05-16T08:59:00;15.75;;;14.20;;
757;SDS011;363;48.764;9.172;2023-05-16T09:01:27;16.25;;;14.55;;
757;SDS011;363;48.764;9.172;2023-05-16T09:03:54;16.80;;;14.43;;
757;SDS011;363;48.764;9.172;2023-05-16T09:06:20;16.00;;;13.75;;
757;SDS011;363;48.764;9.172;2023-05-16T09:08:46;16.90;;;15.10;;
757;SDS011;363;48.764;9.172;2023-05-16T09:11:11;17.70;;;15.30;;
757;SDS011;363;48.764;9.172;2023-05-16T09:13:37;18.13;;;16.20;;
757;SDS011;363;48.764;9.172;2023-05-16T09:16:22;17.65;;;14.85;;
757;SDS011;363;48.764;9.172;2023-05-16T09:18:54;22.05;;;17.90;;
757;SDS011;363;48.764;9.172;2023-05-16T09:21:22;17.52;;;15.52;;
757;SDS011;363;48.764;9.172;2023-05-16T09:24:03;18.92;;;15.07;;
757;SDS011;363;48.764;9.172;2023-05-16T09:26:30;18.80;;;16.02;;
757;SDS011;363;48.764;9.172;2023-05-16T09:28:57;20.88;;;16.65;;
757;SDS011;363;48.764;9.172;2023-05-16T09:31:23;20.13;;;17.93;;
757;SDS011;363;48.764;9.172;2023-05-16T09:34:01;18.65;;;16.63;;
757;SDS011;363;48.764;9.172;2023-05-16T09:36:28;17.48;;;15.68;;
757;SDS011;363;48.764;9.172;2023-05-16T09:38:56;21.80;;;18.67;;
757;SDS011;363;48.764;9.172;2023-05-16T09:41:21;22.17;;;16.70;;
757;SDS011;363;48.764;9.172;2023-05-16T09:43:47;18.80;;;16.33;;
757;SDS011;363;48.764;9.172;2023-05-16T09:46:13;19.70;;;17.10;;
757;SDS011;363;48.764;9.172;2023-05-16T09:48:46;19.38;;;16.50;;
757;SDS011;363;48.764;9.172;2023-05-16T09:51:12;20.15;;;17.27;;
757;SDS011;363;48.764;9.172;2023-05-16T09:53:38;19.05;;;16.63;;
757;SDS011;363;48.764;9.172;2023-05-16T09:56:06;21.50;;;19.20;;
757;SDS011;363;48.764;9.172;2023-05-16T09:58:35;18.85;;;16.85;;
757;SDS011;363;48.764;9.172;2023-05-16T10:01:02;20.92;;;17.05;;
757;SDS011;363;48.764;9.172;2023-05-16T10:03:29;17.98;;;16.08;;
757;SDS011;363;48.764;9.172;2023-05-16T10:05:55;22.33;;;15.77;;
757;SDS011;363;48.764;9.172;2023-05-16T10:08:21;19.90;;;16.63;;
757;SDS011;363;48.764;9.172;2023-05-16T10:10:51;21.40;;;18.10;;
757;SDS011;363;48.764;9.172;2023-05-16T10:13:22;19.23;;;17.10;;
757;SDS011;363;48.764;9.172;2023-05-16T10:15:53;19.92;;;15.85;;
757;SDS011;363;48.764;9.172;2023-05-16T10:18:20;19.65;;;15.82;;
757;SDS011;363;48.764;9.172;2023-05-16T10:20:49;18.77;;;16.77;;
757;SDS011;363;48.764;9.172;2023-05-16T10:23:17;16.65;;;14.80;;
757;SDS011;363;48.764;9.172;2023-05-16T10:25:45;18.98;;;16.17;;
757;SDS011;363;48.764;9.172;2023-05-16T10:28:12;17.90;;;14.73;;
757;SDS011;363;48.764;9.172;2023-05-16T10:30:42;18.38;;;15.30;;
757;SDS011;363;48.764;9.172;2023-05-16T10:33:11;17.58;;;15.32;;
757;SDS011;363;48.764;9.172;2023-05-16T10:35:38;16.55;;;14.82;;
757;SDS011;363;48.764;9.172;2023-05-16T10:38:04;18.60;;;16.05;;
757;SDS011;363;48.764;9.172;2023-05-16T10:40:31;19.20;;;15.00;;
757;SDS011;363;48.764;9.172;2023-05-16T10:42:59;15.63;;;14.00;;
757;SDS011;363;48.764;9.172;2023-05-16T10:45:26;17.33;;;14.50;;
757;SDS011;363;48.764;9.172;2023-05-16T10:47:58;16.63;;;13.47;;
757;SDS011;363;48.764;9.172;2023-05-16T10:50:44;16.85;;;15.05;;
757;SDS011;363;48.764;9.172;2023-05-16T10:53:28;20.95;;;15.25;;
757;SDS011;363;48.764;9.172;2023-05-16T11:06:23;15.85;;;13.73;;
757;SDS011;363;48.764;9.172;2023-05-16T11:11:53;16.98;;;13.13;;
757;SDS011;363;48.764;9.172;2023-05-16T11:22:28;15.02;;;12.23;;
757;SDS011;363;48.764;9.172;2023-05-16T11:25:00;15.52;;;12.85;;
757;SDS011;363;48.764;9.172;2023-05-16T11:27:34;13.80;;;11.80;;
757;SDS011;363;48.764;9.172;2023-05-16T11:32:30;17.73;;;13.00;;
757;SDS011;363;48.764;9.172;2023-05-16T11:34:58;17.35;;;12.77;;
757;SDS011;363;48.764;9.172;2023-05-16T11:37:24;16.13;;;12.00;;
757;SDS011;363;48.764;9.172;2023-05-16T11:39:50;16.07;;;12.33;;
757;SDS011;363;48.764;9.172;2023-05-16T11:42:15;13.47;;;10.80;;
757;SDS011;363;48.764;9.172;2023-05-16T11:44:42;12.77;;;11.15;;
757;SDS011;363;48.764;9.172;2023-05-16T11:47:08;14.55;;;10.35;;
757;SDS011;363;48.764;9.172;2023-05-16T11:49:34;17.27;;;12.43;;
757;SDS011;363;48.764;9.172;2023-05-16T11:52:00;15.20;;;9.75;;
757;SDS011;363;48.764;9.172;2023-05-16T11:54:27;12.75;;;10.77;;
757;SDS011;363;48.764;9.172;2023-05-16T11:56:53;12.75;;;9.95;;
757;SDS011;363;48.764;9.172;2023-05-16T11:59:18;11.30;;;10.10;;
757;SDS011;363;48.764;9.172;2023-05-16T12:01:44;10.23;;;9.13;;
757;SDS011;363;48.764;9.172;2023-05-16T12:04:13;10.27;;;8.60;;
757;SDS011;363;48.764;9.172;2023-05-16T12:06:40;10.32;;;8.80;;
757;SDS011;363;48.764;9.172;2023-05-16T12:09:13;11.80;;;9.38;;
757;SDS011;363;48.764;9.172;2023-05-16T12:11:40;10.98;;;8.77;;
757;SDS011;363;48.764;9.172;2023-05-16T12:14:07;11.00;;;9.90;;
757;SDS011;363;48.764;9.172;2023-05-16T12:16:35;10.00;;;9.00;;
757;SDS011;363;48.764;9.172;2023-05-16T12:19:02;10.30;;;8.95;;
757;SDS011;363;48.764;9.172;2023-05-16T12:21:33;10.57;;;9.48;;
757;SDS011;363;48.764;9.172;2023-05-16T12:23:59;12.02;;;10.63;;
757;SDS011;363;48.764;9.172;2023-05-16T12:26:25;9.75;;;8.75;;
757;SDS011;363;48.764;9.172;2023-05-16T12:29:03;12.60;;;9.93;;
757;SDS011;363;48.764;9.172;2023-05-16T12:31:30;10.68;;;8.50;;
757;SDS011;363;48.764;9.172;2023-05-16T12:34:00;8.90;;;8.10;;
757;SDS011;363;48.764;9.172;2023-05-16T12:36:29;8.77;;;7.90;;
757;SDS011;363;48.764;9.172;2023-05-16T12:39:00;8.23;;;6.40;;
757;SDS011;363;48.764;9.172;2023-05-16T12:41:27;7.90;;;7.10;;
757;SDS011;363;48.764;9.172;2023-05-16T12:44:13;7.20;;;6.28;;
757;SDS011;363;48.764;9.172;2023-05-16T12:49:10;5.47;;;4.97;;
757;SDS011;363;48.764;9.172;2023-05-16T12:51:37;6.00;;;5.47;;
757;SDS011;363;48.764;9.172;2023-05-16T12:54:07;4.90;;;4.50;;
757;SDS011;363;48.764;9.172;2023-05-16T12:56:34;5.68;;;5.13;;
757;SDS011;363;48.764;9.172;2023-05-16T12:58:59;7.47;;;6.40;;
757;SDS011;363;48.764;9.172;2023-05-16T13:01:25;5.27;;;4.87;;
757;SDS011;363;48.764;9.172;2023-05-16T13:03:51;5.77;;;5.30;;
757;SDS011;363;48.764;9.172;2023-05-16T13:06:16;7.37;;;5.93;;
757;SDS011;363;48.764;9.172;2023-05-16T13:08:42;5.70;;;5.20;;
757;SDS011;363;48.764;9.172;2023-05-16T13:11:08;5.63;;;5.13;;
757;SDS011;363;48.764;9.172;2023-05-16T13:13:33;6.03;;;5.40;;
757;SDS011;363;48.764;9.172;2023-05-16T13:15:59;5.67;;;5.17;;
757;SDS011;363;48.764;9.172;2023-05-16T13:18:25;5.23;;;4.63;;
757;SDS011;363;48.764;9.172;2023-05-16T13:20:50;5.53;;;4.50;;
757;SDS011;363;48.764;9.172;2023-05-16T13:23:16;4.03;;;3.72;;
757;SDS011;363;48.764;9.172;2023-05-16T13:25:42;5.30;;;4.70;;
757;SDS011;363;48.764;9.172;2023-05-16T13:28:08;4.60;;;4.20;;
757;SDS011;363;48.764;9.172;2023-05-16T13:30:34;4.45;;;3.67;;
757;SDS011;363;48.764;9.172;2023-05-16T13:33:01;3.55;;;3.25;;
757;SDS011;363;48.764;9.172;2023-05-16T13:35:26;4.37;;;3.53;;
757;SDS011;363;48.764;9.172;2023-05-16T13:37:52;5.73;;;3.47;;
757;SDS011;363;48.764;9.172;2023-05-16T13:40:18;3.90;;;3.60;;
757;SDS011;363;48.764;9.172;2023-05-16T13:42:43;3.67;;;3.37;;
757;SDS011;363;48.764;9.172;2023-05-16T13:45:09;5.10;;;4.00;;
757;SDS011;363;48.764;9.172;2023-05-16T13:47:35;4.57;;;4.17;;
757;SDS011;363;48.764;9.172;2023-05-16T13:50:00;4.13;;;3.57;;
757;SDS011;363;48.764;9.172;2023-05-16T13:52:30;3.28;;;2.97;;
757;SDS011;363;48.764;9.172;2023-05-16T13:54:55;3.60;;;3.30;;
757;SDS011;363;48.764;9.172;2023-05-16T13:57:21;4.20;;;3.80;;
757;SDS011;363;48.764;9.172;2023-05-16T13:59:47;3.30;;;3.00;;
757;SDS011;363;48.764;9.172;2023-05-16T14:02:13;4.33;;;3.87;;
757;SDS011;363;48.764;9.172;2023-05-16T14:04:38;6.90;;;2.80;;
757;SDS011;363;48.764;9.172;2023-05-16T14:07:05;3.47;;;3.10;;
757;SDS011;363;48.764;9.172;2023-05-16T14:09:31;3.65;;;3.20;;
757;SDS011;363;48.764;9.172;2023-05-16T14:11:58;4.55;;;3.58;;
757;SDS011;363;48.764;9.172;2023-05-16T14:14:26;3.45;;;3.20;;
757;SDS011;363;48.764;9.172;2023-05-16T14:16:52;3.63;;;3.30;;
757;SDS011;363;48.764;9.172;2023-05-16T14:19:17;4.37;;;3.53;;
757;SDS011;363;48.764;9.172;2023-05-16T14:21:43;3.87;;;3.57;;
757;SDS011;363;48.764;9.172;2023-05-16T14:24:09;3.83;;;3.53;;
757;SDS011;363;48.764;9.172;2023-05-16T14:26:34;3.90;;;3.60;;
757;SDS011;363;48.764;9.172;2023-05-16T14:31:32;3.60;;;3.30;;
757;SDS011;363;48.764;9.172;2023-05-16T14:34:00;4.07;;;3.78;;
757;SDS011;363;48.764;9.172;2023-05-16T14:36:26;4.33;;;3.73;;
757;SDS011;363;48.764;9.172;2023-05-16T14:38:51;4.20;;;3.60;;
757;SDS011;363;48.764;9.172;2023-05-16T14:41:17;4.10;;;3.80;;
757;SDS011;363;48.764;9.172;2023-05-16T14:43:43;3.90;;;3.60;;
757;SDS011;363;48.764;9.172;2023-05-16T14:46:09;4.85;;;4.03;;
757;SDS011;363;48.764;9.172;2023-05-16T14:48:35;4.00;;;3.60;;
757;SDS011;363;48.764;9.172;2023-05-16T14:51:00;4.37;;;3.90;;
757;SDS011;363;48.764;9.172;2023-05-16T14:53:26;3.70;;;3.40;;
757;SDS011;363;48.764;9.172;2023-05-16T14:55:52;3.47;;;3.17;;
757;SDS011;363;48.764;9.172;2023-05-16T14:58:17;5.77;;;2.90;;
757;SDS011;363;48.764;9.172;2023-05-16T15:00:43;3.53;;;2.80;;
757;SDS011;363;48.764;9.172;2023-05-16T15:03:08;3.80;;;2.70;;
757;SDS011;363;48.764;9.172;2023-05-16T15:05:34;3.90;;;2.57;;
757;SDS011;363;48.764;9.172;2023-05-16T15:08:00;3.77;;;2.60;;
757;SDS011;363;48.764;9.172;2023-05-16T15:10:25;3.10;;;2.77;;
757;SDS011;363;48.764;9.172;2023-05-16T15:12:51;2.50;;;2.30;;
757;SDS011;363;48.764;9.172;2023-05-16T15:15:17;2.50;;;2.25;;
757;SDS011;363;48.764;9.172;2023-05-16T15:17:43;3.20;;;2.47;;
757;SDS011;363;48.764;9.172;2023-05-16T15:20:09;2.80;;;2.60;;
757;SDS011;363;48.764;9.172;2023-05-16T15:22:36;2.50;;;2.30;;
757;SDS011;363;48.764;9.172;2023-05-16T15:25:03;8.18;;;2.33;;
757;SDS011;363;48.764;9.172;2023-05-16T15:27:30;2.53;;;1.75;;
757;SDS011;363;48.764;9.172;2023-05-16T15:29:56;2.58;;;2.38;;
757;SDS011;363;48.764;9.172;2023-05-16T15:32:22;4.33;;;2.50;;
757;SDS011;363;48.764;9.172;2023-05-16T15:34:47;2.70;;;2.50;;
757;SDS011;363;48.764;9.172;2023-05-16T15:37:13;3.92;;;2.67;;
757;SDS011;363;48.764;9.172;2023-05-16T15:39:39;3.13;;;2.78;;
757;SDS011;363;48.764;9.172;2023-05-16T15:42:06;3.13;;;2.85;;
757;SDS011;363;48.764;9.172;2023-05-16T15:44:32;5.87;;;2.50;;
757;SDS011;363;48.764;9.172;2023-05-16T15:46:58;3.58;;;2.33;;
757;SDS011;363;48.764;9.172;2023-05-16T15:49:24;4.28;;;2.83;;
757;SDS011;363;48.764;9.172;2023-05-16T15:51:50;2.90;;;2.60;;
757;SDS011;363;48.764;9.172;2023-05-16T15:54:16;4.50;;;3.13;;
757;SDS011;363;48.764;9.172;2023-05-16T15:56:42;3.03;;;2.17;;
757;SDS011;363;48.764;9.172;2023-05-16T15:59:07;4.80;;;2.80;;
757;SDS011;363;48.764;9.172;2023-05-16T16:01:33;3.13;;;2.60;;
757;SDS011;363;48.764;9.172;2023-05-16T16:03:58;4.90;;;2.50;;
757;SDS011;363;48.764;9.172;2023-05-16T16:06:24;2.80;;;2.10;;